Time;durP1;ratioP1;P1;durP2;ratioP2;P2;SDS_P1;SDS_P2;PMS_P1;PMS_P2;Temp;Humidity;BMP_temperature;BMP_pressure;BME280_temperature;BME280_humidity;BME280_pressure;Samples;Min_cycle;Max_cycle;Signal;HPM_P1;HPM_P2
2022/10/10 00:01:10;;;;;;;0.90;0.83;;;8.60;99.90;;;;;;5064185;28;20451;-78
2022/10/10 00:03:37;;;;;;;3.10;0.80;;;8.60;99.90;;;;;;5057520;28;20532;-78
2022/10/10 00:06:06;;;;;;;5.13;1.20;;;8.50;99.90;;;;;;5061345;28;20533;-78
2022/10/10 00:08:33;;;;;;;2.73;0.80;;;8.50;99.90;;;;;;5060191;28;21161;-78
2022/10/10 00:11:00;;;;;;;2.20;1.23;;;8.50;99.90;;;;;;5059535;28;21161;-77
2022/10/10 00:13:27;;;;;;;4.03;1.13;;;8.50;99.90;;;;;;5065595;28;20459;-78
2022/10/10 00:15:54;;;;;;;2.20;0.80;;;8.50;99.90;;;;;;5061799;28;20460;-78
2022/10/10 00:18:21;;;;;;;3.07;1.00;;;8.50;99.90;;;;;;5062754;28;20484;-78
2022/10/10 00:20:50;;;;;;;1.03;0.80;;;8.40;99.90;;;;;;5061173;28;20528;-77
2022/10/10 00:23:18;;;;;;;2.17;1.23;;;8.50;99.90;;;;;;5062918;28;20460;-78
2022/10/10 00:25:46;;;;;;;1.03;0.80;;;8.50;99.90;;;;;;5063058;28;20489;-78
2022/10/10 00:28:13;;;;;;;2.73;1.33;;;8.40;99.90;;;;;;5066065;28;20492;-78
2022/10/10 00:30:40;;;;;;;1.20;0.90;;;8.40;99.90;;;;;;5069537;28;20873;-78
2022/10/10 00:33:08;;;;;;;1.90;0.90;;;8.40;99.90;;;;;;5064531;28;20524;-78
2022/10/10 00:35:35;;;;;;;3.33;1.00;;;8.40;99.90;;;;;;5062172;28;20471;-78
2022/10/10 00:38:02;;;;;;;3.30;0.80;;;8.40;99.90;;;;;;5062514;28;20986;-76
2022/10/10 00:40:31;;;;;;;1.53;1.10;;;8.30;99.90;;;;;;5062139;28;20464;-76
2022/10/10 00:42:58;;;;;;;2.83;1.00;;;8.30;99.90;;;;;;5058013;28;20958;-76
2022/10/10 00:45:32;;;;;;;2.87;1.50;;;8.30;99.90;;;;;;5058654;28;20948;-76
2022/10/10 00:48:04;;;;;;;2.40;0.90;;;8.30;99.90;;;;;;5060009;28;20488;-76
2022/10/10 00:50:33;;;;;;;4.40;1.57;;;8.30;99.90;;;;;;5059691;28;20487;-76
2022/10/10 00:53:01;;;;;;;2.67;1.30;;;8.20;99.90;;;;;;5060650;28;20470;-77
2022/10/10 00:55:29;;;;;;;1.13;0.83;;;8.20;99.90;;;;;;5062490;28;20460;-77
2022/10/10 00:57:57;;;;;;;2.10;1.77;;;8.20;99.90;;;;;;5056761;28;20456;-76
2022/10/10 01:00:24;;;;;;;1.30;1.00;;;8.20;99.90;;;;;;5062464;28;20494;-77
2022/10/10 01:02:51;;;;;;;2.07;1.03;;;8.10;99.90;;;;;;5059105;28;20464;-77
2022/10/10 01:05:18;;;;;;;1.97;1.00;;;8.10;99.90;;;;;;5060826;28;20491;-76
2022/10/10 01:07:45;;;;;;;1.83;1.00;;;8.10;99.90;;;;;;5061251;28;20578;-76
2022/10/10 01:10:15;;;;;;;2.77;1.00;;;8.10;99.90;;;;;;5061713;28;20463;-77
2022/10/10 01:12:57;;;;;;;1.60;1.20;;;8.00;99.90;;;;;;5060210;28;20520;-77
2022/10/10 01:15:36;;;;;;;5.60;1.50;;;8.10;99.90;;;;;;5062032;28;20552;-77
2022/10/10 01:18:12;;;;;;;1.10;1.00;;;8.10;99.90;;;;;;5060329;28;20532;-77
2022/10/10 01:21:01;;;;;;;1.50;1.03;;;8.10;99.90;;;;;;5065037;28;20560;-76
2022/10/10 01:24:09;;;;;;;1.77;1.30;;;8.10;99.90;;;;;;5061027;28;20460;-77
2022/10/10 01:27:14;;;;;;;1.23;1.13;;;8.10;99.90;;;;;;5064187;28;20513;-76
2022/10/10 01:29:47;;;;;;;1.30;0.80;;;8.00;99.90;;;;;;5061599;28;20959;-76
2022/10/10 01:32:19;;;;;;;7.57;1.13;;;7.90;99.90;;;;;;5060500;28;21028;-76
2022/10/10 01:34:59;;;;;;;2.17;1.10;;;7.90;99.90;;;;;;5061213;28;20517;-77
2022/10/10 01:37:36;;;;;;;1.20;1.10;;;7.90;99.90;;;;;;5058718;28;20850;-76
2022/10/10 01:40:09;;;;;;;3.00;1.30;;;7.90;99.90;;;;;;5062419;28;20528;-76
2022/10/10 01:42:42;;;;;;;1.50;1.40;;;7.90;99.90;;;;;;5055011;28;20460;-76
2022/10/10 01:45:11;;;;;;;3.50;1.00;;;7.80;99.90;;;;;;5060671;28;20466;-77
2022/10/10 01:47:38;;;;;;;2.13;1.00;;;7.90;99.90;;;;;;5059746;28;20460;-77
2022/10/10 01:50:09;;;;;;;2.83;1.80;;;7.80;99.90;;;;;;5058262;28;20924;-77
2022/10/10 01:52:49;;;;;;;3.73;1.70;;;7.80;99.90;;;;;;5062175;28;20521;-77
2022/10/10 01:55:28;;;;;;;5.93;1.00;;;7.90;99.90;;;;;;5062346;28;20459;-77
2022/10/10 01:58:09;;;;;;;1.30;0.90;;;7.90;99.90;;;;;;5058052;28;20475;-77
2022/10/10 02:00:46;;;;;;;3.77;1.17;;;7.90;99.90;;;;;;5059753;28;20547;-77
2022/10/10 02:03:18;;;;;;;7.53;1.53;;;7.90;99.90;;;;;;5064536;28;20973;-76
2022/10/10 02:05:50;;;;;;;1.43;1.00;;;7.90;99.90;;;;;;5061833;28;20512;-77
2022/10/10 02:08:23;;;;;;;4.63;1.63;;;7.90;99.90;;;;;;5060149;28;21232;-76
2022/10/10 02:10:56;;;;;;;5.10;1.00;;;7.90;99.90;;;;;;5057139;28;20458;-77
2022/10/10 02:13:27;;;;;;;1.40;1.20;;;8.00;99.90;;;;;;5059945;28;20444;-76
2022/10/10 02:15:59;;;;;;;1.60;1.13;;;8.00;99.90;;;;;;5059833;28;20446;-76
2022/10/10 02:18:31;;;;;;;1.83;1.00;;;8.00;99.90;;;;;;5062378;28;21032;-76
2022/10/10 02:21:01;;;;;;;1.43;1.10;;;8.00;99.90;;;;;;5059755;28;20967;-77
2022/10/10 02:23:28;;;;;;;2.20;1.37;;;8.00;99.90;;;;;;5063381;28;20597;-76
2022/10/10 02:25:56;;;;;;;1.47;1.20;;;8.00;99.90;;;;;;5057611;28;20488;-77
2022/10/10 02:28:29;;;;;;;4.03;1.33;;;8.00;99.90;;;;;;5059873;28;20517;-76
2022/10/10 02:31:02;;;;;;;4.20;1.90;;;7.90;99.90;;;;;;5064533;28;20924;-76
2022/10/10 02:33:35;;;;;;;1.90;1.53;;;8.00;99.90;;;;;;5071422;28;20464;-77
2022/10/10 02:36:03;;;;;;;4.90;2.07;;;8.00;99.90;;;;;;5061212;28;20517;-76
2022/10/10 02:38:30;;;;;;;3.87;1.27;;;8.00;99.90;;;;;;5061579;28;20549;-76
2022/10/10 02:41:02;;;;;;;1.53;1.03;;;8.00;99.90;;;;;;5062446;28;20502;-76
2022/10/10 02:43:31;;;;;;;2.03;1.10;;;7.90;99.90;;;;;;5064396;28;20911;-76
2022/10/10 02:46:01;;;;;;;3.30;1.20;;;8.00;99.90;;;;;;5058178;28;20533;-77
2022/10/10 02:48:28;;;;;;;5.23;2.10;;;7.90;99.90;;;;;;5063481;28;20553;-77
2022/10/10 02:50:56;;;;;;;1.73;1.63;;;7.80;99.90;;;;;;5060027;28;20545;-77
2022/10/10 02:53:23;;;;;;;3.17;1.27;;;7.90;99.90;;;;;;5064773;28;20771;-76
2022/10/10 02:55:49;;;;;;;5.17;1.87;;;8.00;99.90;;;;;;5063119;28;20881;-76
2022/10/10 02:58:17;;;;;;;1.23;1.07;;;8.10;99.90;;;;;;5063351;28;20443;-77
2022/10/10 03:00:44;;;;;;;2.57;1.47;;;8.00;99.90;;;;;;5059836;28;20452;-77
2022/10/10 03:03:12;;;;;;;3.20;1.87;;;8.00;99.90;;;;;;5059620;28;20625;-77
2022/10/10 03:05:39;;;;;;;3.33;1.37;;;7.90;99.90;;;;;;5061836;28;20503;-76
2022/10/10 03:08:06;;;;;;;2.93;1.80;;;8.00;99.90;;;;;;5059883;28;20501;-76
2022/10/10 03:10:33;;;;;;;1.33;1.27;;;8.00;99.90;;;;;;5059743;28;20464;-77
2022/10/10 03:13:00;;;;;;;4.23;1.30;;;8.00;99.90;;;;;;5061942;28;20455;-76
2022/10/10 03:15:27;;;;;;;2.23;1.63;;;7.90;99.90;;;;;;5063025;28;20451;-76
2022/10/10 03:17:54;;;;;;;1.80;1.70;;;7.90;99.90;;;;;;5052188;28;20482;-76
2022/10/10 03:20:23;;;;;;;1.63;1.53;;;7.90;99.90;;;;;;5046529;28;20650;-76
2022/10/10 03:22:49;;;;;;;6.03;2.47;;;7.90;99.90;;;;;;5048312;28;20467;-77
2022/10/10 03:25:16;;;;;;;2.80;2.60;;;7.90;99.90;;;;;;5049859;28;21079;-76
2022/10/10 03:27:43;;;;;;;2.43;1.50;;;7.90;99.90;;;;;;5057756;28;20518;-76
2022/10/10 03:30:12;;;;;;;2.50;2.13;;;7.90;99.90;;;;;;5058798;28;20487;-76
2022/10/10 03:32:38;;;;;;;2.50;1.57;;;7.90;99.90;;;;;;5058908;28;20560;-76
2022/10/10 03:35:06;;;;;;;2.30;1.43;;;7.70;99.90;;;;;;5061050;28;20463;-76
2022/10/10 03:37:34;;;;;;;3.13;1.60;;;7.70;99.90;;;;;;5063531;28;21185;-76
2022/10/10 03:40:01;;;;;;;4.17;1.37;;;7.70;99.90;;;;;;5065202;28;21162;-76
2022/10/10 03:42:28;;;;;;;4.13;1.30;;;7.70;99.90;;;;;;5065549;28;20458;-76
2022/10/10 03:44:55;;;;;;;1.63;1.37;;;7.70;99.90;;;;;;5061186;28;20487;-76
2022/10/10 03:47:22;;;;;;;3.03;1.23;;;7.60;99.90;;;;;;5061919;28;20832;-76
2022/10/10 03:49:49;;;;;;;5.10;2.60;;;7.60;99.90;;;;;;5064378;28;20572;-76
2022/10/10 03:52:16;;;;;;;4.43;2.67;;;7.60;99.90;;;;;;5064054;28;20544;-76
2022/10/10 03:54:45;;;;;;;10.77;1.43;;;7.60;99.90;;;;;;5061655;28;20559;-76
2022/10/10 03:57:12;;;;;;;2.63;1.70;;;7.50;99.90;;;;;;5061758;28;20564;-76
2022/10/10 03:59:39;;;;;;;2.40;1.60;;;7.40;99.90;;;;;;5062276;28;20517;-76
2022/10/10 04:02:06;;;;;;;11.37;3.13;;;7.40;99.90;;;;;;5060487;28;20491;-76
2022/10/10 04:04:33;;;;;;;2.33;1.43;;;7.50;99.90;;;;;;5062248;28;20916;-76
2022/10/10 04:06:59;;;;;;;1.47;1.37;;;7.40;99.90;;;;;;5060275;28;20521;-76
2022/10/10 04:09:27;;;;;;;2.10;1.73;;;7.40;99.90;;;;;;5064690;28;20484;-76
2022/10/10 04:11:55;;;;;;;2.80;1.83;;;7.40;99.90;;;;;;5060849;28;20460;-76
2022/10/10 04:14:22;;;;;;;3.20;1.37;;;7.50;99.90;;;;;;5066392;28;20458;-76
2022/10/10 04:16:50;;;;;;;2.17;1.43;;;7.50;99.90;;;;;;5065349;28;20459;-76
2022/10/10 04:19:17;;;;;;;2.63;2.10;;;7.60;99.90;;;;;;5062522;28;20489;-77
2022/10/10 04:21:44;;;;;;;3.00;1.97;;;7.50;99.90;;;;;;5065193;28;20455;-76
2022/10/10 04:24:11;;;;;;;3.33;2.53;;;7.40;99.90;;;;;;5064757;28;20440;-76
2022/10/10 04:26:38;;;;;;;5.53;2.97;;;7.30;99.90;;;;;;5061346;28;20509;-76
2022/10/10 04:29:06;;;;;;;2.83;2.40;;;7.20;99.90;;;;;;5060987;28;20519;-76
2022/10/10 04:31:33;;;;;;;1.70;1.60;;;7.10;99.90;;;;;;5064105;28;20537;-76
2022/10/10 04:34:00;;;;;;;2.43;1.93;;;7.10;99.90;;;;;;5062554;28;20500;-76
2022/10/10 04:36:27;;;;;;;6.30;2.20;;;7.00;99.90;;;;;;5063606;28;20459;-76
2022/10/10 04:38:54;;;;;;;2.80;1.90;;;7.00;99.90;;;;;;5064375;28;20448;-77
2022/10/10 04:41:21;;;;;;;7.57;2.80;;;6.90;99.90;;;;;;5062265;28;20509;-76
2022/10/10 04:43:48;;;;;;;3.37;2.07;;;7.00;99.90;;;;;;5056193;28;20456;-76
2022/10/10 04:46:16;;;;;;;4.50;2.83;;;7.00;99.90;;;;;;5058115;28;20553;-77
2022/10/10 04:48:43;;;;;;;3.73;2.40;;;7.00;99.90;;;;;;5066662;28;20545;-76
2022/10/10 04:51:10;;;;;;;2.63;2.43;;;6.90;99.90;;;;;;5061386;28;20517;-76
2022/10/10 04:53:37;;;;;;;3.27;2.10;;;6.80;99.90;;;;;;5068632;28;20499;-76
2022/10/10 04:56:04;;;;;;;3.63;1.90;;;6.80;99.90;;;;;;5059205;28;20487;-76
2022/10/10 04:58:31;;;;;;;3.87;2.30;;;6.80;99.90;;;;;;5065360;28;20900;-76
2022/10/10 05:00:58;;;;;;;3.17;2.40;;;6.70;99.90;;;;;;5060340;28;20491;-76
2022/10/10 05:03:26;;;;;;;1.93;1.83;;;6.70;99.90;;;;;;5063682;28;20541;-76
2022/10/10 05:05:53;;;;;;;8.10;2.30;;;6.70;99.90;;;;;;5061683;28;20491;-76
2022/10/10 05:08:21;;;;;;;2.70;2.20;;;6.60;99.90;;;;;;5052246;28;20495;-76
2022/10/10 05:10:48;;;;;;;6.47;2.03;;;6.60;99.90;;;;;;5063685;28;20483;-76
2022/10/10 05:13:16;;;;;;;4.87;2.27;;;6.70;99.90;;;;;;5062958;28;20530;-75
2022/10/10 05:15:43;;;;;;;6.90;2.87;;;6.70;99.90;;;;;;5060803;28;20969;-76
2022/10/10 05:18:10;;;;;;;4.37;2.30;;;6.60;99.90;;;;;;5059960;28;20551;-75
2022/10/10 05:20:39;;;;;;;2.67;2.30;;;6.60;99.90;;;;;;5063012;28;20451;-76
2022/10/10 05:23:06;;;;;;;4.90;2.50;;;6.50;99.90;;;;;;5064438;28;20475;-76
2022/10/10 05:25:33;;;;;;;2.40;2.00;;;6.50;99.90;;;;;;5074836;28;20541;-76
2022/10/10 05:28:00;;;;;;;2.73;2.37;;;6.40;99.90;;;;;;5055602;28;20515;-76
2022/10/10 05:30:27;;;;;;;4.23;1.90;;;6.30;99.90;;;;;;5067105;28;21050;-76
2022/10/10 05:32:54;;;;;;;2.87;2.13;;;6.30;99.90;;;;;;5062587;28;20616;-76
2022/10/10 05:35:21;;;;;;;3.20;2.20;;;6.30;99.90;;;;;;5063417;28;20521;-76
2022/10/10 05:37:49;;;;;;;5.20;3.10;;;6.20;99.90;;;;;;5059200;28;20499;-76
2022/10/10 05:40:16;;;;;;;2.50;2.03;;;6.20;99.90;;;;;;5061640;28;20533;-76
2022/10/10 05:42:43;;;;;;;2.63;2.40;;;6.20;99.90;;;;;;5063152;28;20548;-76
2022/10/10 05:45:10;;;;;;;4.13;2.30;;;6.10;99.90;;;;;;5051872;28;20857;-76
2022/10/10 05:47:37;;;;;;;2.20;1.93;;;6.10;99.90;;;;;;5057774;28;20478;-76
2022/10/10 05:50:06;;;;;;;5.47;2.07;;;6.20;99.90;;;;;;5063871;28;20583;-76
2022/10/10 05:52:34;;;;;;;1.77;1.67;;;6.20;99.90;;;;;;5063112;28;20485;-76
2022/10/10 05:55:02;;;;;;;3.13;2.93;;;6.20;99.90;;;;;;5066320;28;20493;-76
2022/10/10 05:57:29;;;;;;;3.00;2.67;;;6.30;99.90;;;;;;5061833;28;20445;-76
2022/10/10 05:59:56;;;;;;;3.47;3.10;;;6.50;99.90;;;;;;5062245;28;20538;-77
2022/10/10 06:02:23;;;;;;;3.03;2.40;;;6.60;99.90;;;;;;5048128;28;20848;-76
2022/10/10 06:04:50;;;;;;;5.23;2.83;;;6.70;99.90;;;;;;5045565;28;20445;-76
2022/10/10 06:07:17;;;;;;;3.83;2.43;;;6.70;99.90;;;;;;5045807;28;20461;-76
2022/10/10 06:09:44;;;;;;;4.20;3.50;;;6.80;99.90;;;;;;5061634;28;20483;-76
2022/10/10 06:12:12;;;;;;;3.20;2.90;;;6.90;99.90;;;;;;5062404;28;20530;-77
2022/10/10 06:14:39;;;;;;;4.33;2.33;;;7.00;99.90;;;;;;5064469;28;20455;-76
2022/10/10 06:17:06;;;;;;;3.83;2.80;;;7.10;99.90;;;;;;5058362;28;20495;-77
2022/10/10 06:19:33;;;;;;;2.60;2.40;;;7.30;99.90;;;;;;5063893;28;20440;-77
2022/10/10 06:22:00;;;;;;;5.80;3.50;;;7.30;99.90;;;;;;5050368;28;20483;-77
2022/10/10 06:24:27;;;;;;;3.53;2.00;;;7.40;99.90;;;;;;5045597;28;20441;-76
2022/10/10 06:26:54;;;;;;;4.07;2.73;;;7.60;99.90;;;;;;5044898;28;20541;-76
2022/10/10 06:29:22;;;;;;;10.93;4.03;;;7.80;99.90;;;;;;5045808;28;20619;-77
2022/10/10 06:31:49;;;;;;;3.67;3.03;;;7.80;99.90;;;;;;5046623;28;20444;-77
2022/10/10 06:34:16;;;;;;;2.90;2.60;;;7.90;99.90;;;;;;5048651;28;20461;-76
2022/10/10 06:36:43;;;;;;;3.57;2.93;;;8.00;99.90;;;;;;5052598;28;20440;-76
2022/10/10 06:39:10;;;;;;;2.90;2.60;;;8.20;99.90;;;;;;5057034;28;21216;-76
2022/10/10 06:41:37;;;;;;;3.23;2.37;;;8.20;99.90;;;;;;5066472;28;20448;-77
2022/10/10 06:44:04;;;;;;;8.07;3.40;;;8.30;99.90;;;;;;5062275;28;20984;-77
2022/10/10 06:46:33;;;;;;;6.10;3.30;;;8.40;99.90;;;;;;5058726;28;20490;-76
2022/10/10 06:49:00;;;;;;;4.70;3.10;;;8.60;99.90;;;;;;5061551;28;20541;-76
2022/10/10 06:51:26;;;;;;;4.43;4.13;;;8.80;99.90;;;;;;5064463;28;20533;-76
2022/10/10 06:53:53;;;;;;;4.53;4.13;;;8.90;99.90;;;;;;5060778;28;20464;-76
2022/10/10 06:56:21;;;;;;;2.83;2.63;;;9.00;99.90;;;;;;5061480;28;20493;-76
2022/10/10 06:58:48;;;;;;;7.00;3.03;;;9.10;99.90;;;;;;5058294;28;20954;-77
2022/10/10 07:01:17;;;;;;;3.17;2.70;;;9.10;99.90;;;;;;5059620;28;21202;-76
2022/10/10 07:03:45;;;;;;;3.70;3.00;;;9.20;99.90;;;;;;5056062;28;20448;-76
2022/10/10 07:06:13;;;;;;;3.57;2.17;;;9.20;99.90;;;;;;5063897;28;20533;-76
2022/10/10 07:08:40;;;;;;;2.40;2.20;;;9.20;99.90;;;;;;5061505;28;20505;-76
2022/10/10 07:11:08;;;;;;;3.30;1.40;;;9.50;99.90;;;;;;5066513;28;20487;-76
2022/10/10 07:13:35;;;;;;;3.63;2.50;;;9.60;99.90;;;;;;5056046;28;20902;-76
2022/10/10 07:16:03;;;;;;;2.97;2.10;;;9.60;99.90;;;;;;5062359;28;20533;-76
2022/10/10 07:18:31;;;;;;;7.80;2.70;;;9.70;99.90;;;;;;5064148;28;20530;-76
2022/10/10 07:21:00;;;;;;;6.03;2.43;;;9.80;99.90;;;;;;5064822;28;20934;-76
2022/10/10 07:23:30;;;;;;;6.47;2.00;;;10.00;99.90;;;;;;5060321;28;20475;-77
2022/10/10 07:26:00;;;;;;;5.03;2.53;;;10.10;99.90;;;;;;5067770;28;20506;-76
2022/10/10 07:28:28;;;;;;;2.23;2.00;;;10.20;99.90;;;;;;5067525;28;20467;-76
2022/10/10 07:31:00;;;;;;;3.67;2.00;;;10.10;99.90;;;;;;5062365;28;20488;-77
2022/10/10 07:33:31;;;;;;;4.83;2.20;;;10.00;99.90;;;;;;5066823;28;20454;-77
2022/10/10 07:36:00;;;;;;;2.93;2.20;;;10.10;99.90;;;;;;5065526;28;20458;-76
2022/10/10 07:38:27;;;;;;;3.17;1.80;;;10.10;99.90;;;;;;5066583;28;20471;-76
2022/10/10 07:40:54;;;;;;;4.07;1.73;;;10.30;99.90;;;;;;5059446;28;20460;-77
2022/10/10 07:43:21;;;;;;;2.20;1.83;;;10.60;99.90;;;;;;5065781;28;20548;-76
2022/10/10 07:45:48;;;;;;;3.47;3.17;;;10.70;99.90;;;;;;5059344;28;20905;-76
2022/10/10 07:48:16;;;;;;;2.47;1.77;;;10.60;99.90;;;;;;5065473;28;20509;-76
2022/10/10 07:50:43;;;;;;;5.27;1.93;;;10.70;99.90;;;;;;5066633;28;20556;-76
2022/10/10 07:53:12;;;;;;;2.23;2.03;;;10.60;99.90;;;;;;5066667;28;20463;-77
2022/10/10 07:55:40;;;;;;;5.50;2.80;;;10.70;99.90;;;;;;5066724;28;20444;-76
2022/10/10 07:58:06;;;;;;;2.83;2.63;;;10.90;99.90;;;;;;5065284;28;20458;-76
2022/10/10 08:00:34;;;;;;;4.20;2.50;;;11.00;99.90;;;;;;5067437;28;20448;-77
2022/10/10 08:03:01;;;;;;;2.93;2.43;;;11.10;99.90;;;;;;5059200;28;20464;-76
2022/10/10 08:05:29;;;;;;;2.60;2.40;;;11.10;99.90;;;;;;5065335;28;20456;-77
2022/10/10 08:07:56;;;;;;;2.17;1.97;;;11.30;99.90;;;;;;5064197;28;21034;-77
2022/10/10 08:10:24;;;;;;;5.17;2.90;;;11.30;99.90;;;;;;5063641;28;21048;-77
2022/10/10 08:12:51;;;;;;;9.70;2.43;;;11.50;99.90;;;;;;5069774;28;20885;-77
2022/10/10 08:15:18;;;;;;;5.03;2.10;;;11.60;99.90;;;;;;5055877;28;21035;-77
2022/10/10 08:17:45;;;;;;;2.53;2.33;;;11.80;99.90;;;;;;5066373;28;20500;-77
2022/10/10 08:20:12;;;;;;;7.67;2.33;;;11.70;99.90;;;;;;5062894;28;20948;-76
2022/10/10 08:22:40;;;;;;;3.57;2.97;;;11.70;99.90;;;;;;5064410;28;20538;-77
2022/10/10 08:25:07;;;;;;;2.57;2.40;;;11.80;99.90;;;;;;5069077;28;20452;-76
2022/10/10 08:27:36;;;;;;;3.80;2.50;;;11.90;99.90;;;;;;5064854;28;20483;-77
2022/10/10 08:30:03;;;;;;;3.10;2.27;;;12.10;99.90;;;;;;5064449;28;20491;-77
2022/10/10 08:32:30;;;;;;;3.43;1.77;;;12.20;99.90;;;;;;5060137;28;20482;-77
2022/10/10 08:34:57;;;;;;;3.10;2.03;;;12.30;99.90;;;;;;5065503;28;20503;-77
2022/10/10 08:37:24;;;;;;;4.50;2.50;;;12.40;99.90;;;;;;5063371;28;20897;-77
2022/10/10 08:39:51;;;;;;;4.73;2.30;;;12.50;99.90;;;;;;5061415;28;20466;-77
2022/10/10 08:42:29;;;;;;;4.53;3.53;;;12.70;99.90;;;;;;5056404;28;20869;-77
2022/10/10 08:45:04;;;;;;;3.30;2.57;;;12.80;99.90;;;;;;5057230;28;20465;-77
2022/10/10 08:47:39;;;;;;;3.30;2.20;;;12.90;99.90;;;;;;5062239;28;20542;-77
2022/10/10 08:50:12;;;;;;;4.40;1.80;;;12.90;99.90;;;;;;5055299;28;20578;-77
2022/10/10 08:52:46;;;;;;;4.00;3.67;;;12.90;99.90;;;;;;5060084;28;20502;-77
2022/10/10 08:55:18;;;;;;;4.80;3.97;;;13.10;99.90;;;;;;5054352;28;20550;-77
2022/10/10 08:57:50;;;;;;;3.63;2.43;;;13.10;99.90;;;;;;5056423;28;20459;-77
2022/10/10 09:00:22;;;;;;;2.70;2.50;;;13.10;99.90;;;;;;5060348;28;20443;-77
2022/10/10 09:02:51;;;;;;;3.83;2.67;;;12.80;99.90;;;;;;5051493;28;20530;-77
2022/10/10 09:05:21;;;;;;;3.57;2.30;;;13.00;99.90;;;;;;5061662;28;20537;-77
2022/10/10 09:08:20;;;;;;;4.90;2.60;;;13.10;99.90;;;;;;5062037;28;20466;-77
2022/10/10 09:10:54;;;;;;;3.20;2.83;;;13.50;99.90;;;;;;5055882;28;20589;-77
2022/10/10 09:13:31;;;;;;;3.90;1.93;;;13.50;99.90;;;;;;5058167;28;20861;-77
2022/10/10 09:16:02;;;;;;;6.57;3.10;;;13.60;99.90;;;;;;5054551;28;20493;-77
2022/10/10 09:18:45;;;;;;;7.40;2.47;;;13.60;99.90;;;;;;5063977;28;20556;-80
2022/10/10 09:21:17;;;;;;;5.03;2.30;;;13.70;99.90;;;;;;5063069;28;20466;-80
2022/10/10 09:23:49;;;;;;;4.63;1.53;;;13.90;99.90;;;;;;5058460;28;20460;-80
2022/10/10 09:26:20;;;;;;;3.73;1.80;;;13.80;99.90;;;;;;5052903;28;20492;-79
2022/10/10 09:28:52;;;;;;;4.00;2.00;;;13.90;99.90;;;;;;5056475;28;20540;-79
2022/10/10 09:31:28;;;;;;;5.50;4.10;;;14.10;99.90;;;;;;5054005;28;20574;-77
2022/10/10 09:34:00;;;;;;;3.40;2.17;;;14.10;99.90;;;;;;5062085;28;20487;-77
2022/10/10 09:36:33;;;;;;;5.60;2.23;;;14.20;99.90;;;;;;5058932;28;20449;-77
2022/10/10 09:39:03;;;;;;;3.23;2.13;;;14.40;99.90;;;;;;5062811;28;20536;-77
2022/10/10 09:41:36;;;;;;;4.57;2.13;;;14.70;99.90;;;;;;5058451;28;20464;-77
2022/10/10 09:44:09;;;;;;;2.73;2.53;;;14.80;99.90;;;;;;5062080;28;20446;-76
2022/10/10 09:46:38;;;;;;;2.50;1.80;;;14.90;99.90;;;;;;5060318;28;20469;-77
2022/10/10 09:49:05;;;;;;;4.03;2.50;;;14.70;99.90;;;;;;5059494;28;20463;-77
2022/10/10 09:51:34;;;;;;;3.20;2.40;;;14.50;99.90;;;;;;5055980;28;20517;-77
2022/10/10 09:54:01;;;;;;;2.30;2.20;;;14.40;99.90;;;;;;5063191;28;20525;-77
2022/10/10 09:56:31;;;;;;;2.13;1.93;;;14.60;99.90;;;;;;5056305;28;20981;-77
2022/10/10 09:58:58;;;;;;;3.60;1.77;;;14.80;99.90;;;;;;5060746;28;20503;-77
2022/10/10 10:01:29;;;;;;;2.73;1.97;;;15.10;99.90;;;;;;5061484;28;20482;-77
2022/10/10 10:04:15;;;;;;;3.97;2.00;;;15.00;99.90;;;;;;5050930;28;20448;-77
2022/10/10 10:06:45;;;;;;;5.30;2.70;;;15.00;99.90;;;;;;5059228;28;20449;-77
2022/10/10 10:09:16;;;;;;;3.60;1.93;;;15.10;99.90;;;;;;5059576;28;20458;-77
2022/10/10 10:11:44;;;;;;;2.97;2.37;;;15.30;99.90;;;;;;5061319;28;20574;-77
2022/10/10 10:14:24;;;;;;;8.70;2.37;;;15.40;99.90;;;;;;5058897;28;20541;-77
2022/10/10 10:16:52;;;;;;;2.37;2.27;;;15.30;99.90;;;;;;5062080;28;20466;-77
2022/10/10 10:19:34;;;;;;;2.23;1.97;;;15.20;99.90;;;;;;5047778;28;20453;-77
2022/10/10 10:22:02;;;;;;;3.23;2.20;;;15.30;99.90;;;;;;5058690;28;20497;-77
2022/10/10 10:24:35;;;;;;;2.43;2.30;;;15.40;99.90;;;;;;5061894;28;20459;-77
2022/10/10 10:27:16;;;;;;;3.97;2.63;;;15.20;99.90;;;;;;5058797;28;21138;-77
2022/10/10 10:29:47;;;;;;;2.73;2.40;;;15.40;99.90;;;;;;5063563;28;20450;-77
2022/10/10 10:32:23;;;;;;;2.57;2.27;;;15.70;99.90;;;;;;5059992;28;20500;-77
2022/10/10 10:35:22;;;;;;;2.33;2.23;;;15.80;99.90;;;;;;5059350;28;20442;-76
2022/10/10 10:38:08;;;;;;;5.63;3.00;;;15.80;99.90;;;;;;5053452;28;21039;-77
2022/10/10 10:40:40;;;;;;;4.57;2.83;;;15.80;99.90;;;;;;5063354;28;20441;-77
2022/10/10 10:43:38;;;;;;;3.40;1.67;;;15.90;99.90;;;;;;5066674;28;20516;-78
2022/10/10 10:46:14;;;;;;;2.70;2.20;;;16.20;99.90;;;;;;5056391;28;20460;-76
2022/10/10 10:48:44;;;;;;;4.40;2.50;;;16.10;99.90;;;;;;5066553;28;20535;-76
2022/10/10 10:51:40;;;;;;;6.50;2.83;;;16.20;99.90;;;;;;5061735;28;20551;-76
2022/10/10 10:54:22;;;;;;;2.70;2.50;;;16.20;99.90;;;;;;5060301;28;20467;-76
2022/10/10 10:56:54;;;;;;;4.90;2.27;;;16.50;99.90;;;;;;5062661;28;20529;-76
2022/10/10 10:59:36;;;;;;;6.63;2.30;;;16.60;99.90;;;;;;5058742;28;20466;-76
2022/10/10 11:02:20;;;;;;;5.13;2.10;;;16.80;99.90;;;;;;5060350;28;21018;-76
2022/10/10 11:05:01;;;;;;;3.90;2.17;;;16.70;99.90;;;;;;5049787;28;20501;-76
2022/10/10 11:07:35;;;;;;;2.70;1.97;;;16.80;99.90;;;;;;5044129;28;20549;-76
2022/10/10 11:10:11;;;;;;;2.67;2.47;;;16.90;99.90;;;;;;5047767;28;20553;-76
2022/10/10 11:12:53;;;;;;;2.60;1.77;;;17.00;99.90;;;;;;5046761;28;21208;-76
2022/10/10 11:15:25;;;;;;;6.70;2.60;;;16.90;99.90;;;;;;5045225;28;20614;-76
2022/10/10 11:17:58;;;;;;;4.93;2.60;;;16.80;99.90;;;;;;5055037;28;20489;-76
2022/10/10 11:20:30;;;;;;;7.07;2.63;;;16.90;99.90;;;;;;5060832;28;20487;-76
2022/10/10 11:23:05;;;;;;;3.20;1.97;;;17.00;99.90;;;;;;5061221;28;20551;-76
2022/10/10 11:25:36;;;;;;;4.20;2.43;;;17.20;99.90;;;;;;5059688;28;20492;-76
2022/10/10 11:28:08;;;;;;;2.50;1.63;;;17.20;99.90;;;;;;5063359;28;20974;-76
2022/10/10 11:30:40;;;;;;;21.23;4.20;;;17.20;99.90;;;;;;5055895;28;20455;-76
2022/10/10 11:33:13;;;;;;;2.87;2.13;;;17.20;99.90;;;;;;5056868;28;20547;-76
2022/10/10 11:35:45;;;;;;;2.40;1.13;;;17.20;99.90;;;;;;5061980;28;20530;-76
2022/10/10 11:38:19;;;;;;;3.50;2.03;;;17.30;99.90;;;;;;5064738;28;20899;-76
2022/10/10 11:40:52;;;;;;;1.57;1.47;;;17.40;99.90;;;;;;5063120;28;20448;-76
2022/10/10 11:43:28;;;;;;;5.17;1.80;;;17.30;99.90;;;;;;5061885;28;20529;-76
2022/10/10 11:46:03;;;;;;;2.10;1.77;;;17.50;99.90;;;;;;5059061;28;21185;-76
2022/10/10 11:48:41;;;;;;;5.63;2.27;;;17.90;99.90;;;;;;5065342;28;20458;-76
2022/10/10 11:51:18;;;;;;;2.40;1.57;;;18.00;99.90;;;;;;5061871;28;20870;-76
2022/10/10 11:53:51;;;;;;;3.07;1.37;;;18.00;99.90;;;;;;5064542;28;20786;-76
2022/10/10 11:56:26;;;;;;;4.00;1.37;;;18.00;99.90;;;;;;5059176;28;20947;-76
2022/10/10 11:58:57;;;;;;;2.30;1.73;;;18.00;99.90;;;;;;5060033;28;20459;-76
2022/10/10 12:01:29;;;;;;;3.70;1.50;;;17.70;99.90;;;;;;5064815;28;20518;-76
2022/10/10 12:03:57;;;;;;;4.03;1.80;;;17.70;99.90;;;;;;5062610;28;20447;-76
2022/10/10 12:06:29;;;;;;;3.37;1.57;;;17.80;99.90;;;;;;5065462;28;20764;-76
2022/10/10 12:09:01;;;;;;;1.80;1.50;;;17.80;99.90;;;;;;5058317;28;20459;-76
2022/10/10 12:11:33;;;;;;;2.10;1.90;;;17.70;99.90;;;;;;5065351;28;20986;-76
2022/10/10 12:14:02;;;;;;;3.43;1.97;;;17.80;99.90;;;;;;5064546;28;20459;-76
2022/10/10 12:16:31;;;;;;;1.67;1.57;;;17.70;99.90;;;;;;5059422;28;21012;-76
2022/10/10 12:19:04;;;;;;;1.70;1.47;;;17.90;99.90;;;;;;5061829;28;20529;-76
2022/10/10 12:21:32;;;;;;;1.67;1.57;;;18.00;99.90;;;;;;5057554;28;20535;-76
2022/10/10 12:24:11;;;;;;;3.43;2.10;;;18.20;99.90;;;;;;5062931;28;20490;-76
2022/10/10 12:27:23;;;;;;;2.03;1.83;;;18.20;99.90;;;;;;5064600;28;20455;-76
2022/10/10 12:30:18;;;;;;;1.50;1.40;;;18.10;99.90;;;;;;5029010;28;20456;-76
2022/10/10 12:32:49;;;;;;;4.20;1.50;;;18.20;99.90;;;;;;5058364;28;20483;-77
2022/10/10 12:35:38;;;;;;;5.17;1.30;;;18.30;99.90;;;;;;5063124;28;20508;-77
2022/10/10 12:38:16;;;;;;;2.20;1.70;;;18.50;99.90;;;;;;5054573;28;20467;-76
2022/10/10 12:41:10;;;;;;;2.93;2.03;;;18.40;99.60;;;;;;5056282;28;20466;-76
2022/10/10 12:43:40;;;;;;;3.07;1.20;;;18.40;99.40;;;;;;5057446;28;20456;-76
2022/10/10 12:46:16;;;;;;;2.70;1.67;;;18.40;99.00;;;;;;5053373;28;20460;-76
2022/10/10 12:48:44;;;;;;;4.90;1.90;;;18.30;99.90;;;;;;5061306;28;20460;-76
2022/10/10 12:51:20;;;;;;;2.30;1.30;;;18.20;99.80;;;;;;5059645;28;20544;-77
2022/10/10 12:53:51;;;;;;;1.77;1.40;;;18.30;99.00;;;;;;5060339;28;20502;-76
2022/10/10 12:56:36;;;;;;;2.33;1.40;;;18.50;98.90;;;;;;5062921;28;20463;-77
2022/10/10 12:59:04;;;;;;;6.43;2.67;;;18.60;98.80;;;;;;5064032;28;20451;-76
2022/10/10 13:01:35;;;;;;;2.60;1.53;;;18.40;97.90;;;;;;5063462;28;20438;-76
2022/10/10 13:04:02;;;;;;;2.90;1.57;;;18.70;98.30;;;;;;5063230;28;20999;-76
2022/10/10 13:06:35;;;;;;;2.53;1.67;;;18.70;98.20;;;;;;5064444;28;20445;-76
2022/10/10 13:09:07;;;;;;;2.97;1.40;;;18.80;96.90;;;;;;5057008;28;20461;-75
2022/10/10 13:11:50;;;;;;;2.50;1.37;;;18.80;97.20;;;;;;5061710;28;20868;-76